Metar Cercanos

 

LEPA - Palma De Mallorc, Spain
Distance from station: ONO 38km
Actualización: 22/10/2018 18:00
Few Clouds
Few Clouds
 Viento del ENE
Viento: ENE 24 km/h
Temperatura: 22°C
Rocío: 16°C
Humedad: 69%
Barómetro: 1020 hPa
Clouds: Few Clouds
Visibility: 10 km
Cloud details: Few Clouds 671 m
2018/10/22 16:00 LEPA 221600Z 07013KT 9999 FEW022 22/16 Q1020 NOSIG
LEMH - Mahon/Menorca Is, Spain
Distance from station: ENE 105km
Actualización: 22/10/2018 18:00
Few Clouds
Few Clouds
 Viento del NE
Viento: NE 22 km/h
Temperatura: 20°C
Rocío: 13°C
Humedad: 64%
Barómetro: 1019 hPa
Clouds: Few Clouds
Visibility: 10 km
Cloud details: Few Clouds 914 m
2018/10/22 16:00 LEMH 221600Z 04012KT 9999 FEW030 20/13 Q1019
 
LEIB - Ibiza/Es Codola, Spain
Distance from station: OSO 165km
Actualización: 22/10/2018 18:00
Few Clouds
Few Clouds
 Viento del NNE
Viento: NNE 17 km/h
Temperatura: 23°C
Rocío: 16°C
Humedad: 65%
Barómetro: 1020 hPa
Clouds: Few Clouds
Visibility: 10 km
Cloud details: Few Clouds 914 m
2018/10/22 16:00 LEIB 221600Z 02009KT 9999 FEW030 23/16 Q1020 NOSIG
LEBL - Barcelona Airpor, Spain
Distance from station: NNO 225km
Actualización: 22/10/2018 18:00
Few Clouds
Few Clouds
 Viento del E
Viento: E 7 km/h
Temperatura: 20°C
Rocío: 15°C
Humedad: 73%
Barómetro: 1021 hPa
Clouds: Few Clouds
Visibility: 10 km
Cloud details: Few Clouds 1219 m
2018/10/22 16:00 LEBL 221600Z 09004KT 060V120 9999 FEW040 20/15 Q1021 NOSIG
 
LEVC - Valencia (civ/Mi, Spain
Distance from station: NO 188km
Actualización: 22/10/2018 18:00
Muy nuboso
Muy nuboso
 Viento del E
Viento: E 13 km/h
Temperatura: 22°C
Rocío: 17°C
Humedad: 73%
Barómetro: 1022 hPa
Clouds: Muy nuboso
Visibility: 10 km
Cloud details: Muy nuboso 671 m
2018/10/22 16:00 LEVC 221600Z 08007KT 9999 BKN022 22/17 Q1022 NOSIG
LEGE - Gerona/Costa Bra, Spain
Distance from station: N 276km
Actualización: 22/10/2018 18:00
Parcialmente nuboso
Parcialmente nuboso
 Viento del varies
Viento: varies 4 km/h
Temperatura: 21°C
Rocío: 14°C
Humedad: 64%
Barómetro: 1021 hPa
Clouds: Parcialmente nuboso
Visibility: 10 km
Cloud details: Parcialmente nuboso 914 m
2018/10/22 16:00 LEGE 221600Z VRB02KT 9999 SCT030 21/14 Q1021
 
LEAL - Alicante/El Alte, Spain
Distance from station: OSO 344km
Actualización: 22/10/2018 18:00
Few Clouds
Few Clouds
 Viento del E
Viento: E 13 km/h
Temperatura: 23°C
Rocío: 17°C
Humedad: 69%
Barómetro: 1020 hPa
Clouds: Few Clouds
Visibility: 10 km
Cloud details: Few Clouds 914 m
2018/10/22 16:00 LEAL 221600Z 10007KT 070V150 9999 FEW030 23/17 Q1020 NOSIG
LEAM - Almeria Airport, Spain
Distance from station: SSO 56km
Actualización: 22/10/2018 18:00
Few Clouds
Few Clouds
 Viento del S
Viento: S 9 km/h
Temperatura: 23°C
Rocío: 18°C
Humedad: 74%
Barómetro: 1019 hPa
Clouds: Few Clouds
Visibility: 10 km
Cloud details: Few Clouds 457 m
2018/10/22 16:00 LEAM 221600Z 18005KT 150V210 9999 FEW015 23/18 Q1019
 
LEZG - Zaragoza (mil/Ci, Spain
Distance from station: NO 431km
Actualización: 22/10/2018 18:00
Despejado
Despejado
 Viento del ONO
Viento: ONO 30 km/h
Temperatura: 22°C
Rocío: 6°C
Humedad: 36%
Barómetro: 1022 hPa
Resumen: Despejado
Visibility: greater than 10 km
2018/10/22 16:00 LEZG 221600Z 30016KT 280V340 CAVOK 22/06 Q1022
LEMD - Madrid/Barajas, Spain
Distance from station: ONO 234km
Actualización: 22/10/2018 18:00
Despejado
Despejado
 Viento del NE
Viento: NE 6 km/h
Temperatura: 23°C
Rocío: 6°C
Humedad: 33%
Barómetro: 1022 hPa
Resumen: Despejado
Visibility: greater than 10 km
2018/10/22 16:00 LEMD 221600Z 04003KT 340V130 CAVOK 23/06 Q1022 NOSIG
 
LEGR - Granada Airport, Spain
Distance from station: OSO 62km
Actualización: 22/10/2018 18:00
Few Clouds
Few Clouds
 Viento del varies
Viento: varies 2 km/h
Temperatura: 24°C
Rocío: 13°C
Humedad: 50%
Barómetro: 1020 hPa
Clouds: Few Clouds
Visibility: 10 km
Cloud details: Few Clouds 1219 m
2018/10/22 16:00 LEGR 221600Z VRB01KT 9999 FEW040 24/13 Q1020
LEMG - Malaga (civ/Mil), Spain
Distance from station: OSO 227km
Actualización: 22/10/2018 18:00
Few Clouds
Few Clouds
 Viento del SE
Viento: SE 9 km/h
Temperatura: 22°C
Rocío: 17°C
Humedad: 73%
Barómetro: 1019 hPa
Clouds: Few Clouds
Visibility: 10 km
Cloud details: Few Clouds 914 m
2018/10/22 16:00 LEMG 221600Z 14005KT 110V180 9999 FEW030 22/17 Q1019 NOSIG
 
LEZL - Sevilla (civ/Mil, Spain
Distance from station: S 318km
Actualización: 22/10/2018 18:00
Few Clouds
Few Clouds
 Viento del NE
Viento: NE 7 km/h
Temperatura: 25°C
Rocío: 16°C
Humedad: 57%
Barómetro: 1018 hPa
Clouds: Few Clouds
Visibility: 10 km
Cloud details: Few Clouds 1219 m
2018/10/22 16:00 LEZL 221600Z 05004KT 340V130 9999 FEW040 25/16 Q1018 NOSIG
LEVT - Vitoria, Spain
Distance from station: NO 226km
Actualización: 22/10/2018 18:00
Few Clouds
Few Clouds
 Viento del NNE
Viento: NNE 22 km/h
Temperatura: 15°C
Rocío: 7°C
Humedad: 59%
Barómetro: 1027 hPa
Clouds: Few Clouds
Visibility: 10 km
Cloud details: Few Clouds 975 m
2018/10/22 16:00 LEVT 221600Z 02012KT 340V050 9999 FEW032 15/07 Q1027
 
LEBB - Bilbao/Sondica, Spain
Distance from station: NNO 235km
Actualización: 22/10/2018 18:00
Muy nuboso
Muy nuboso
 Viento del NNO
Viento: NNO 13 km/h
Temperatura: 17°C
Rocío: 11°C
Humedad: 68%
Barómetro: 1029 hPa
Clouds: Muy nuboso
Visibility: 10 km
Cloud details: Few Clouds 762 m
Muy nuboso 914 m
2018/10/22 16:00 LEBB 221600Z 34007KT 320V030 9999 FEW025 BKN030 17/11 Q1029 NOSIG
LESO - San Sebastian/Fu, Spain
Distance from station: N 231km
Actualización: 22/10/2018 18:00
Parcialmente nuboso
Parcialmente nuboso
 Viento del ONO
Viento: ONO 7 km/h
Temperatura: 16°C
Rocío: 11°C
Humedad: 72%
Barómetro: 1028 hPa
Clouds: Parcialmente nuboso
Visibility: 10 km
Cloud details: Parcialmente nuboso 762 m
2018/10/22 16:00 LESO 221600Z 30004KT 240V360 9999 SCT025 16/11 Q1028
 
LEVD - Valladolid(Mil/C, Spain
Distance from station: ONO 239km
Actualización: 22/10/2018 18:00
Despejado
Despejado
 Viento del NE
Viento: NE 33 km/h
Temperatura: 17°C
Rocío: 5°C
Humedad: 45%
Barómetro: 1024 hPa
Resumen: Despejado
Visibility: greater than 10 km
2018/10/22 16:00 LEVD 221600Z 04018KT 010V070 CAVOK 17/05 Q1024
LESA - Salamanca (civ/M, Spain
Distance from station: ONO 349km
Actualización: 22/10/2018 18:00
Despejado
Despejado
 Viento del ENE
Viento: ENE 19 km/h
Temperatura: 20°C
Rocío: 3°C
Humedad: 33%
Barómetro: 1023 hPa
Resumen: Despejado
Visibility: greater than 10 km
2018/10/22 16:00 LESA 221600Z 06010KT 030V100 CAVOK 20/03 Q1023
 
LEXJ - Santander/Paraya, Spain
Distance from station: NNO 247km
Actualización: 22/10/2018 18:00
Parcialmente nuboso
Parcialmente nuboso
 Viento del NNE
Viento: NNE 6 km/h
Temperatura: 18°C
Rocío: 12°C
Humedad: 68%
Barómetro: 1029 hPa
Clouds: Parcialmente nuboso
Visibility: 10 km
Cloud details: Few Clouds 853 m
Parcialmente nuboso 1737 m
2018/10/22 16:00 LEXJ 221600Z 03003KT 340V090 9999 FEW028 SCT057 18/12 Q1029
LEAS - Asturias/Aviles, Spain
Distance from station: NO 214km
Actualización: 22/10/2018 18:00
Muy nuboso
Muy nuboso
 Viento del ENE
Viento: ENE 15 km/h
Temperatura: 17°C
Rocío: 13°C
Humedad: 77%
Barómetro: 1029 hPa
Clouds: Muy nuboso
Visibility: 10 km
Cloud details: Few Clouds 610 m
Muy nuboso 2164 m
2018/10/22 16:00 LEAS 221600Z 07008KT 020V110 9999 FEW020 BKN071 17/13 Q1029 NOSIG
 
LECO - La Coruna/Alvedr, Spain
Distance from station: ONO 222km
Actualización: 22/10/2018 18:00
Few Clouds
Few Clouds
 Viento del NE
Viento: NE 17 km/h
Temperatura: 20°C
Rocío: 11°C
Humedad: 56%
Barómetro: 1026 hPa
Clouds: Few Clouds
Visibility: 10 km
Cloud details: Few Clouds 610 m
2018/10/22 16:00 LECO 221600Z 04009KT 330V090 9999 FEW020 20/11 Q1026 NOSIG
LEVX - Vigo/Peinador, Spain
Distance from station: O 214km
Actualización: 22/10/2018 18:00
Few Clouds
Few Clouds
 Viento del varies
Viento: varies 4 km/h
Temperatura: 23°C
Rocío: 15°C
Humedad: 61%
Barómetro: 1022 hPa
Clouds: Few Clouds
Visibility: 10 km
Cloud details: Few Clouds 914 m
2018/10/22 16:00 LEVX 221600Z VRB02KT 9999 FEW030 23/15 Q1022 NOSIG